sensor_id;sensor_type;location;lat;lon;timestamp;pressure;altitude;pressure_sealevel;temperature;humidity
58598;BME280;60319;46.908;16.848;2022-08-11T00:00:10;100022.81;;;18.59;63.03
58598;BME280;60319;46.908;16.848;2022-08-11T00:05:13;100029.69;;;18.62;63.22
58598;BME280;60319;46.908;16.848;2022-08-11T00:10:18;100026.34;;;18.60;62.77
58598;BME280;60319;46.908;16.848;2022-08-11T00:15:20;100026.03;;;18.55;63.43
58598;BME280;60319;46.908;16.848;2022-08-11T00:20:22;100031.69;;;18.45;64.08
58598;BME280;60319;46.908;16.848;2022-08-11T00:25:28;100028.56;;;18.41;64.59
58598;BME280;60319;46.908;16.848;2022-08-11T00:30:37;100029.59;;;18.40;64.52
58598;BME280;60319;46.908;16.848;2022-08-11T00:35:38;100026.13;;;18.31;64.93
58598;BME280;60319;46.908;16.848;2022-08-11T00:40:54;100019.78;;;18.24;64.67
58598;BME280;60319;46.908;16.848;2022-08-11T01:02:25;100034.56;;;17.81;68.38
58598;BME280;60319;46.908;16.848;2022-08-11T01:13:14;100031.03;;;17.57;69.28
58598;BME280;60319;46.908;16.848;2022-08-11T01:45:15;100029.16;;;16.86;73.77
58598;BME280;60319;46.908;16.848;2022-08-11T01:50:44;100026.91;;;16.41;74.37
58598;BME280;60319;46.908;16.848;2022-08-11T02:01:22;100016.31;;;16.56;74.13
58598;BME280;60319;46.908;16.848;2022-08-11T02:11:58;100009.97;;;16.24;74.96
58598;BME280;60319;46.908;16.848;2022-08-11T02:17:18;100019.06;;;16.07;78.01
58598;BME280;60319;46.908;16.848;2022-08-11T02:22:48;100018.69;;;15.85;79.77
58598;BME280;60319;46.908;16.848;2022-08-11T02:28:30;100020.00;;;15.64;79.84
58598;BME280;60319;46.908;16.848;2022-08-11T02:33:37;100017.78;;;15.43;80.57
58598;BME280;60319;46.908;16.848;2022-08-11T02:38:52;100023.59;;;15.30;82.47
58598;BME280;60319;46.908;16.848;2022-08-11T02:49:32;100025.50;;;15.02;84.35
58598;BME280;60319;46.908;16.848;2022-08-11T03:00:15;100022.41;;;14.81;87.11
58598;BME280;60319;46.908;16.848;2022-08-11T03:10:47;100026.19;;;14.51;86.37
58598;BME280;60319;46.908;16.848;2022-08-11T03:21:44;100030.22;;;14.29;89.93
58598;BME280;60319;46.908;16.848;2022-08-11T03:27:01;100039.78;;;14.32;89.53
58598;BME280;60319;46.908;16.848;2022-08-11T03:32:25;100048.44;;;14.25;90.63
58598;BME280;60319;46.908;16.848;2022-08-11T03:37:55;100045.00;;;14.15;90.34
58598;BME280;60319;46.908;16.848;2022-08-11T03:43:51;100043.63;;;14.11;91.57
58598;BME280;60319;46.908;16.848;2022-08-11T04:10:08;100048.44;;;14.52;89.19
58598;BME280;60319;46.908;16.848;2022-08-11T04:15:25;100049.50;;;14.59;87.98
58598;BME280;60319;46.908;16.848;2022-08-11T04:32:46;100046.84;;;21.03;63.29
58598;BME280;60319;46.908;16.848;2022-08-11T04:37:41;100048.66;;;23.66;53.50
58598;BME280;60319;46.908;16.848;2022-08-11T05:00:09;100053.38;;;30.33;34.55
58598;BME280;60319;46.908;16.848;2022-08-11T05:05:59;100050.31;;;30.73;33.48
58598;BME280;60319;46.908;16.848;2022-08-11T05:16:10;100049.94;;;31.02;32.63
58598;BME280;60319;46.908;16.848;2022-08-11T05:21:31;100055.00;;;31.31;32.25
58598;BME280;60319;46.908;16.848;2022-08-11T05:26:52;100062.88;;;31.07;32.38
58598;BME280;60319;46.908;16.848;2022-08-11T05:32:15;100055.09;;;31.88;31.03
58598;BME280;60319;46.908;16.848;2022-08-11T05:37:41;100057.28;;;31.55;31.57
58598;BME280;60319;46.908;16.848;2022-08-11T05:43:11;100058.59;;;31.42;31.78
58598;BME280;60319;46.908;16.848;2022-08-11T05:48:35;100052.34;;;31.68;31.48
58598;BME280;60319;46.908;16.848;2022-08-11T05:53:57;100046.22;;;32.70;30.02
58598;BME280;60319;46.908;16.848;2022-08-11T05:59:18;100059.22;;;32.38;30.24
58598;BME280;60319;46.908;16.848;2022-08-11T06:04:23;100062.78;;;31.76;30.86
58598;BME280;60319;46.908;16.848;2022-08-11T06:09:32;100057.00;;;32.61;30.63
58598;BME280;60319;46.908;16.848;2022-08-11T06:14:34;100050.72;;;32.19;30.32
58598;BME280;60319;46.908;16.848;2022-08-11T06:19:46;100058.78;;;33.07;29.37
58598;BME280;60319;46.908;16.848;2022-08-11T06:24:54;100052.94;;;34.04;28.58
58598;BME280;60319;46.908;16.848;2022-08-11T06:29:56;100062.88;;;34.59;27.95
58598;BME280;60319;46.908;16.848;2022-08-11T06:35:21;100057.78;;;35.21;26.36
58598;BME280;60319;46.908;16.848;2022-08-11T06:40:52;100065.03;;;34.08;27.63
58598;BME280;60319;46.908;16.848;2022-08-11T06:46:14;100064.03;;;33.94;27.46
58598;BME280;60319;46.908;16.848;2022-08-11T06:51:17;100071.44;;;33.99;27.72
58598;BME280;60319;46.908;16.848;2022-08-11T06:56:23;100058.53;;;34.53;26.74
58598;BME280;60319;46.908;16.848;2022-08-11T07:12:40;100049.75;;;34.51;26.36
58598;BME280;60319;46.908;16.848;2022-08-11T07:18:03;100060.94;;;33.66;27.16
58598;BME280;60319;46.908;16.848;2022-08-11T07:23:26;100051.16;;;33.84;27.39
58598;BME280;60319;46.908;16.848;2022-08-11T07:28:48;100038.22;;;35.17;26.33
58598;BME280;60319;46.908;16.848;2022-08-11T07:34:03;100035.81;;;34.86;26.49
58598;BME280;60319;46.908;16.848;2022-08-11T07:39:12;100041.59;;;34.11;26.51
58598;BME280;60319;46.908;16.848;2022-08-11T07:44:15;100039.22;;;32.98;27.97
58598;BME280;60319;46.908;16.848;2022-08-11T07:49:16;100022.66;;;33.14;28.56
58598;BME280;60319;46.908;16.848;2022-08-11T07:54:36;100034.31;;;31.13;30.24
58598;BME280;60319;46.908;16.848;2022-08-11T07:59:37;100033.84;;;29.92;33.27
58598;BME280;60319;46.908;16.848;2022-08-11T08:04:57;100016.59;;;29.36;34.47
58598;BME280;60319;46.908;16.848;2022-08-11T08:10:17;100033.66;;;28.37;34.19
58598;BME280;60319;46.908;16.848;2022-08-11T08:15:38;100023.31;;;28.22;35.39
58598;BME280;60319;46.908;16.848;2022-08-11T08:20:58;100024.66;;;27.26;37.67
58598;BME280;60319;46.908;16.848;2022-08-11T08:26:14;100027.00;;;26.70;36.73
58598;BME280;60319;46.908;16.848;2022-08-11T08:31:34;100031.25;;;27.01;36.53
58598;BME280;60319;46.908;16.848;2022-08-11T08:36:35;100028.09;;;26.69;35.65
58598;BME280;60319;46.908;16.848;2022-08-11T08:41:39;100019.03;;;26.92;36.13
58598;BME280;60319;46.908;16.848;2022-08-11T08:46:43;100021.78;;;26.92;37.58
58598;BME280;60319;46.908;16.848;2022-08-11T08:51:48;100006.13;;;27.58;37.54
58598;BME280;60319;46.908;16.848;2022-08-11T08:56:54;100016.09;;;27.35;34.66
58598;BME280;60319;46.908;16.848;2022-08-11T09:02:04;100004.94;;;26.83;35.21
58598;BME280;60319;46.908;16.848;2022-08-11T09:07:09;100004.56;;;27.03;34.50
58598;BME280;60319;46.908;16.848;2022-08-11T09:12:15;100001.75;;;27.27;35.18
58598;BME280;60319;46.908;16.848;2022-08-11T09:17:20;99987.22;;;27.39;35.19
58598;BME280;60319;46.908;16.848;2022-08-11T09:22:21;99987.91;;;27.46;34.96
58598;BME280;60319;46.908;16.848;2022-08-11T09:27:40;99987.13;;;27.63;35.86
58598;BME280;60319;46.908;16.848;2022-08-11T09:32:42;99976.72;;;27.30;35.61
58598;BME280;60319;46.908;16.848;2022-08-11T09:37:43;99981.03;;;26.61;35.92
58598;BME280;60319;46.908;16.848;2022-08-11T09:43:05;99975.63;;;27.31;36.94
58598;BME280;60319;46.908;16.848;2022-08-11T09:48:30;99966.84;;;27.93;36.00
58598;BME280;60319;46.908;16.848;2022-08-11T09:53:36;99963.78;;;27.89;33.73
58598;BME280;60319;46.908;16.848;2022-08-11T09:58:37;99958.47;;;28.00;34.39
58598;BME280;60319;46.908;16.848;2022-08-11T10:03:41;99949.16;;;28.18;34.02
58598;BME280;60319;46.908;16.848;2022-08-11T10:08:42;99952.75;;;28.36;35.79
58598;BME280;60319;46.908;16.848;2022-08-11T10:13:44;99949.22;;;28.57;34.10
58598;BME280;60319;46.908;16.848;2022-08-11T10:19:04;99933.88;;;28.79;35.30
58598;BME280;60319;46.908;16.848;2022-08-11T10:24:06;99933.16;;;28.04;35.40
58598;BME280;60319;46.908;16.848;2022-08-11T10:29:31;99930.38;;;28.39;33.93
58598;BME280;60319;46.908;16.848;2022-08-11T10:34:50;99920.91;;;27.90;32.24
58598;BME280;60319;46.908;16.848;2022-08-11T10:39:52;99913.13;;;28.38;33.16
58598;BME280;60319;46.908;16.848;2022-08-11T10:44:57;99900.75;;;29.30;32.07
58598;BME280;60319;46.908;16.848;2022-08-11T10:49:58;99903.63;;;28.91;31.38
58598;BME280;60319;46.908;16.848;2022-08-11T10:55:18;99904.38;;;28.19;32.79
58598;BME280;60319;46.908;16.848;2022-08-11T11:00:37;99897.59;;;27.01;35.22
58598;BME280;60319;46.908;16.848;2022-08-11T11:05:38;99905.69;;;26.84;35.24
58598;BME280;60319;46.908;16.848;2022-08-11T11:10:40;99901.16;;;26.61;35.98
58598;BME280;60319;46.908;16.848;2022-08-11T11:15:44;99893.81;;;27.20;35.13
58598;BME280;60319;46.908;16.848;2022-08-11T11:21:07;99887.34;;;27.72;33.02
58598;BME280;60319;46.908;16.848;2022-08-11T11:36:57;99873.53;;;27.15;35.75
58598;BME280;60319;46.908;16.848;2022-08-11T11:42:05;99863.47;;;27.85;34.69
58598;BME280;60319;46.908;16.848;2022-08-11T11:47:07;99854.78;;;28.27;32.38
58598;BME280;60319;46.908;16.848;2022-08-11T11:52:15;99860.72;;;28.69;32.58
58598;BME280;60319;46.908;16.848;2022-08-11T11:57:19;99850.75;;;28.57;31.61
58598;BME280;60319;46.908;16.848;2022-08-11T12:02:39;99841.09;;;28.05;32.29
58598;BME280;60319;46.908;16.848;2022-08-11T12:07:40;99848.56;;;27.58;33.41
58598;BME280;60319;46.908;16.848;2022-08-11T12:13:00;99835.59;;;27.65;34.48
58598;BME280;60319;46.908;16.848;2022-08-11T12:18:20;99826.06;;;28.75;32.66
58598;BME280;60319;46.908;16.848;2022-08-11T12:23:21;99832.25;;;28.20;32.25
58598;BME280;60319;46.908;16.848;2022-08-11T12:28:40;99827.09;;;27.44;34.61
58598;BME280;60319;46.908;16.848;2022-08-11T12:33:40;99823.09;;;27.35;33.90
58598;BME280;60319;46.908;16.848;2022-08-11T12:38:45;99800.28;;;27.98;32.62
58598;BME280;60319;46.908;16.848;2022-08-11T12:43:47;99787.28;;;28.55;31.54
58598;BME280;60319;46.908;16.848;2022-08-11T12:49:18;99780.00;;;28.94;30.65
58598;BME280;60319;46.908;16.848;2022-08-11T12:59:49;99782.22;;;27.97;30.97
58598;BME280;60319;46.908;16.848;2022-08-11T13:05:12;99787.78;;;27.46;31.43
58598;BME280;60319;46.908;16.848;2022-08-11T13:10:15;99782.28;;;27.23;32.78
58598;BME280;60319;46.908;16.848;2022-08-11T13:15:39;99769.69;;;28.24;30.84
58598;BME280;60319;46.908;16.848;2022-08-11T13:20:41;99767.81;;;28.02;30.51
58598;BME280;60319;46.908;16.848;2022-08-11T13:25:43;99766.16;;;27.22;31.38
58598;BME280;60319;46.908;16.848;2022-08-11T13:30:44;99764.19;;;27.56;33.10
58598;BME280;60319;46.908;16.848;2022-08-11T13:36:03;99762.00;;;27.19;32.51
58598;BME280;60319;46.908;16.848;2022-08-11T13:41:04;99755.13;;;26.82;31.86
58598;BME280;60319;46.908;16.848;2022-08-11T13:46:28;99752.41;;;27.34;32.92
58598;BME280;60319;46.908;16.848;2022-08-11T13:51:29;99757.44;;;27.81;31.51
58598;BME280;60319;46.908;16.848;2022-08-11T13:56:31;99735.09;;;28.07;30.74
58598;BME280;60319;46.908;16.848;2022-08-11T14:01:36;99738.16;;;28.11;30.93
58598;BME280;60319;46.908;16.848;2022-08-11T14:06:44;99735.81;;;27.58;31.29
58598;BME280;60319;46.908;16.848;2022-08-11T14:11:45;99735.09;;;27.45;31.69
58598;BME280;60319;46.908;16.848;2022-08-11T14:17:05;99721.06;;;26.85;31.36
58598;BME280;60319;46.908;16.848;2022-08-11T14:22:11;99717.44;;;26.79;31.83
58598;BME280;60319;46.908;16.848;2022-08-11T14:27:13;99720.16;;;26.62;33.49
58598;BME280;60319;46.908;16.848;2022-08-11T14:32:14;99724.66;;;26.39;31.48
58598;BME280;60319;46.908;16.848;2022-08-11T14:37:21;99720.75;;;26.35;33.34
58598;BME280;60319;46.908;16.848;2022-08-11T14:42:23;99716.03;;;26.93;32.24
58598;BME280;60319;46.908;16.848;2022-08-11T14:47:45;99708.94;;;27.10;32.51
58598;BME280;60319;46.908;16.848;2022-08-11T14:52:52;99703.81;;;27.13;29.67
58598;BME280;60319;46.908;16.848;2022-08-11T14:57:54;99703.16;;;27.06;31.03
58598;BME280;60319;46.908;16.848;2022-08-11T15:02:56;99702.16;;;26.78;30.32
58598;BME280;60319;46.908;16.848;2022-08-11T15:08:12;99692.47;;;26.70;29.72
58598;BME280;60319;46.908;16.848;2022-08-11T15:13:17;99693.06;;;26.72;29.15
58598;BME280;60319;46.908;16.848;2022-08-11T15:18:20;99690.41;;;26.77;31.56
58598;BME280;60319;46.908;16.848;2022-08-11T15:23:23;99681.25;;;26.84;31.80
58598;BME280;60319;46.908;16.848;2022-08-11T15:28:47;99683.38;;;26.82;32.61
58598;BME280;60319;46.908;16.848;2022-08-11T15:34:10;99681.50;;;26.65;31.28
58598;BME280;60319;46.908;16.848;2022-08-11T15:45:02;99672.19;;;26.32;31.18
58598;BME280;60319;46.908;16.848;2022-08-11T15:50:26;99667.13;;;26.23;32.26
58598;BME280;60319;46.908;16.848;2022-08-11T15:55:30;99666.34;;;26.11;32.91
58598;BME280;60319;46.908;16.848;2022-08-11T16:00:35;99670.03;;;25.75;33.64
58598;BME280;60319;46.908;16.848;2022-08-11T16:05:55;99672.06;;;25.56;34.07
58598;BME280;60319;46.908;16.848;2022-08-11T16:10:57;99663.66;;;25.46;34.25
58598;BME280;60319;46.908;16.848;2022-08-11T16:15:58;99656.00;;;25.43;35.26
58598;BME280;60319;46.908;16.848;2022-08-11T16:21:22;99660.28;;;25.38;35.63
58598;BME280;60319;46.908;16.848;2022-08-11T16:26:25;99648.56;;;25.26;36.09
58598;BME280;60319;46.908;16.848;2022-08-11T16:31:27;99655.34;;;25.11;36.40
58598;BME280;60319;46.908;16.848;2022-08-11T16:36:30;99656.63;;;24.97;36.53
58598;BME280;60319;46.908;16.848;2022-08-11T16:41:49;99658.50;;;24.84;37.02
58598;BME280;60319;46.908;16.848;2022-08-11T16:47:12;99657.28;;;24.80;37.37
58598;BME280;60319;46.908;16.848;2022-08-11T16:52:13;99661.66;;;24.69;38.15
58598;BME280;60319;46.908;16.848;2022-08-11T16:57:17;99656.69;;;24.54;38.21
58598;BME280;60319;46.908;16.848;2022-08-11T17:02:48;99662.47;;;24.46;39.10
58598;BME280;60319;46.908;16.848;2022-08-11T17:08:08;99662.31;;;24.29;39.51
58598;BME280;60319;46.908;16.848;2022-08-11T17:13:34;99657.16;;;24.20;39.83
58598;BME280;60319;46.908;16.848;2022-08-11T17:19:29;99661.72;;;24.08;39.06
58598;BME280;60319;46.908;16.848;2022-08-11T17:24:25;99662.72;;;23.95;40.81
58598;BME280;60319;46.908;16.848;2022-08-11T17:29:40;99662.06;;;23.81;41.15
58598;BME280;60319;46.908;16.848;2022-08-11T17:34:45;99649.72;;;23.66;41.91
58598;BME280;60319;46.908;16.848;2022-08-11T17:40:07;99655.97;;;23.48;42.73
58598;BME280;60319;46.908;16.848;2022-08-11T17:45:09;99658.06;;;23.27;43.29
58598;BME280;60319;46.908;16.848;2022-08-11T17:50:29;99651.47;;;22.98;43.88
58598;BME280;60319;46.908;16.848;2022-08-11T17:55:31;99657.00;;;22.84;45.02
58598;BME280;60319;46.908;16.848;2022-08-11T18:00:52;99662.56;;;22.70;45.83
58598;BME280;60319;46.908;16.848;2022-08-11T18:05:55;99669.16;;;22.49;47.14
58598;BME280;60319;46.908;16.848;2022-08-11T18:10:58;99677.50;;;22.41;47.53
58598;BME280;60319;46.908;16.848;2022-08-11T18:16:18;99672.03;;;22.15;48.33
58598;BME280;60319;46.908;16.848;2022-08-11T18:21:41;99669.00;;;21.98;49.11
58598;BME280;60319;46.908;16.848;2022-08-11T18:27:03;99674.13;;;21.74;49.98
58598;BME280;60319;46.908;16.848;2022-08-11T18:32:23;99680.22;;;21.42;51.68
58598;BME280;60319;46.908;16.848;2022-08-11T18:37:46;99687.13;;;21.25;52.58
58598;BME280;60319;46.908;16.848;2022-08-11T18:43:10;99693.81;;;21.02;53.95
58598;BME280;60319;46.908;16.848;2022-08-11T18:48:30;99694.81;;;20.87;55.07
58598;BME280;60319;46.908;16.848;2022-08-11T18:53:53;99700.19;;;20.67;57.69
58598;BME280;60319;46.908;16.848;2022-08-11T18:59:16;99709.50;;;20.44;60.28
58598;BME280;60319;46.908;16.848;2022-08-11T19:04:38;99711.34;;;20.23;61.15
58598;BME280;60319;46.908;16.848;2022-08-11T19:09:58;99710.47;;;20.09;62.49
58598;BME280;60319;46.908;16.848;2022-08-11T19:15:19;99705.41;;;19.93;63.55
58598;BME280;60319;46.908;16.848;2022-08-11T19:20:41;99717.38;;;19.83;64.67
58598;BME280;60319;46.908;16.848;2022-08-11T19:26:02;99709.25;;;19.76;65.01
58598;BME280;60319;46.908;16.848;2022-08-11T19:31:21;99700.31;;;19.69;65.73
58598;BME280;60319;46.908;16.848;2022-08-11T19:36:41;99705.03;;;19.60;67.25
58598;BME280;60319;46.908;16.848;2022-08-11T19:42:01;99708.28;;;19.49;68.45
58598;BME280;60319;46.908;16.848;2022-08-11T19:47:21;99710.50;;;19.38;69.23
58598;BME280;60319;46.908;16.848;2022-08-11T19:52:40;99711.09;;;19.34;70.16
58598;BME280;60319;46.908;16.848;2022-08-11T19:58:01;99710.25;;;19.33;69.40
58598;BME280;60319;46.908;16.848;2022-08-11T20:03:20;99721.03;;;19.33;69.63
58598;BME280;60319;46.908;16.848;2022-08-11T20:08:41;99710.25;;;19.33;70.33
58598;BME280;60319;46.908;16.848;2022-08-11T20:14:02;99715.22;;;19.30;71.28
58598;BME280;60319;46.908;16.848;2022-08-11T20:19:24;99714.75;;;19.26;71.26
58598;BME280;60319;46.908;16.848;2022-08-11T20:24:46;99717.22;;;19.21;71.47
58598;BME280;60319;46.908;16.848;2022-08-11T20:30:06;99710.56;;;19.17;71.90
58598;BME280;60319;46.908;16.848;2022-08-11T20:35:25;99710.50;;;19.10;72.19
58598;BME280;60319;46.908;16.848;2022-08-11T20:40:45;99710.81;;;19.00;72.89
58598;BME280;60319;46.908;16.848;2022-08-11T20:46:05;99717.97;;;18.86;73.06
58598;BME280;60319;46.908;16.848;2022-08-11T20:51:25;99713.28;;;18.73;74.13
58598;BME280;60319;46.908;16.848;2022-08-11T20:56:46;99723.47;;;18.56;76.54
58598;BME280;60319;46.908;16.848;2022-08-11T21:02:08;99731.78;;;18.39;77.43
58598;BME280;60319;46.908;16.848;2022-08-11T21:07:32;99734.09;;;18.20;76.78
58598;BME280;60319;46.908;16.848;2022-08-11T21:12:53;99736.66;;;17.83;75.13
58598;BME280;60319;46.908;16.848;2022-08-11T21:18:18;99746.97;;;17.80;76.89
58598;BME280;60319;46.908;16.848;2022-08-11T21:23:39;99746.41;;;17.54;77.70
58598;BME280;60319;46.908;16.848;2022-08-11T21:29:01;99743.16;;;17.44;78.65
58598;BME280;60319;46.908;16.848;2022-08-11T21:34:21;99748.97;;;17.32;79.66
58598;BME280;60319;46.908;16.848;2022-08-11T21:39:42;99740.41;;;17.14;79.89
58598;BME280;60319;46.908;16.848;2022-08-11T21:45:03;99738.53;;;16.99;80.79
58598;BME280;60319;46.908;16.848;2022-08-11T21:50:23;99740.31;;;16.84;81.66
58598;BME280;60319;46.908;16.848;2022-08-11T21:55:42;99744.59;;;16.69;82.50
58598;BME280;60319;46.908;16.848;2022-08-11T22:01:02;99747.50;;;16.60;83.14
58598;BME280;60319;46.908;16.848;2022-08-11T22:06:21;99752.66;;;16.46;83.44
58598;BME280;60319;46.908;16.848;2022-08-11T22:11:44;99751.22;;;16.35;84.32
58598;BME280;60319;46.908;16.848;2022-08-11T22:17:03;99748.25;;;16.22;83.97
58598;BME280;60319;46.908;16.848;2022-08-11T22:22:22;99743.56;;;16.15;86.07
58598;BME280;60319;46.908;16.848;2022-08-11T22:27:42;99736.44;;;16.31;85.31
58598;BME280;60319;46.908;16.848;2022-08-11T22:33:02;99746.72;;;16.27;84.53
58598;BME280;60319;46.908;16.848;2022-08-11T22:38:22;99746.88;;;16.26;85.27
58598;BME280;60319;46.908;16.848;2022-08-11T22:43:45;99754.75;;;16.27;85.44
58598;BME280;60319;46.908;16.848;2022-08-11T22:49:04;99771.75;;;16.20;86.76
58598;BME280;60319;46.908;16.848;2022-08-11T22:54:25;99768.47;;;16.33;83.81
58598;BME280;60319;46.908;16.848;2022-08-11T22:59:45;99759.63;;;16.55;84.03
58598;BME280;60319;46.908;16.848;2022-08-11T23:05:05;99757.88;;;16.39;83.98
58598;BME280;60319;46.908;16.848;2022-08-11T23:10:25;99752.63;;;16.14;85.69
58598;BME280;60319;46.908;16.848;2022-08-11T23:15:45;99753.28;;;16.25;85.42
58598;BME280;60319;46.908;16.848;2022-08-11T23:21:04;99750.59;;;16.25;85.31
58598;BME280;60319;46.908;16.848;2022-08-11T23:26:28;99748.63;;;16.10;85.47
58598;BME280;60319;46.908;16.848;2022-08-11T23:31:50;99746.16;;;16.00;86.99
58598;BME280;60319;46.908;16.848;2022-08-11T23:37:10;99739.81;;;15.85;88.25
58598;BME280;60319;46.908;16.848;2022-08-11T23:42:29;99755.81;;;15.70;88.40
58598;BME280;60319;46.908;16.848;2022-08-11T23:47:48;99741.78;;;15.51;89.85
58598;BME280;60319;46.908;16.848;2022-08-11T23:53:09;99744.28;;;15.52;89.59
58598;BME280;60319;46.908;16.848;2022-08-11T23:58:31;99730.56;;;15.39;89.85
